Terminal Aerodrome Forecast
Issued by NWS Albuquerque, NM

Current Version | Previous Version | Text Only | Print | Product List | Glossary On
Versions: 1 2 3 4 5 6 7 8 9 10 11 12 13 14 15
000
FTUS45 KABQ 181100
TAFABQ
TAF
KABQ 181125Z 1812/1912 06005KT P6SM BKN080
     FM181800 12011KT P6SM SCT030 BKN060
     FM182300 12010G20KT P6SM SCT025 OVC040
     FM190700 12010KT P6SM VCSH SCT025 OVC040=

USA.gov is the U.S. government's official web portal to all federal, state and local government web resources and services.